KAND/AND METAR and TAF weather

Enter ICAO airport designator
Station Type Date Time Source
KAND METAR 2019/12/13 21:56 UTC NOAA

KAND 132156Z AUTO 05006KT 10SM OVC006 06/05 A2990 RMK AO2 RAE51 SLP128 P0001 T00610050


Station Type Date Time Source
KAND Decoded METAR 2019/12/13 21:56 UTC NOAA

ANDERSON COUNTY AIRPORT, SC, United States (KAND) 34-30N 82-43W 239M
Dec 13, 2019 - 04:56 PM EST / 2019.12.13 2156 UTC
Wind: from the NE (050 degrees) at 7 MPH (6 KT):0
Visibility: 10 mile(s):0
Sky conditions: overcast
Precipitation last hour: 0.01 inches
Temperature: 43.0 F (6.1 C)
Dew Point: 41.0 F (5.0 C)
Relative Humidity: 92%
Pressure (altimeter): 29.9 in. Hg (1012 hPa)
ob: KAND 132156Z AUTO 05006KT 10SM OVC006 06/05 A2990 RMK AO2 RAE51 SLP128 P0001 T00610050
cycle: 22

Station Type Date Time Source
KAND TAF 2019/12/13 22:16 UTC NOAA

TAF
AMD KAND 132214Z 1322/1418 05008KT P6SM -RA OVC006
FM140000 06006KT 2SM -RA BR OVC005
FM140600 24006KT 1SM RA BR OVC004
FM141300 24007KT 4SM BR BKN012
FM141500 26010G18KT P6SM SCT035

Example: see airport list